createdAt,value
2019-03-01T00:02:23.283Z,38.53
2019-03-01T00:05:11.701Z,38.67
2019-03-01T00:08:40.667Z,40.10
2019-03-01T00:12:03.263Z,37.40
2019-03-01T00:14:41.031Z,38.70
2019-03-01T00:17:15.704Z,41.73
2019-03-01T00:20:07.226Z,38.53
2019-03-01T00:23:01.775Z,40.87
2019-03-01T00:25:35.529Z,38.13
2019-03-01T00:28:10.387Z,43.77
2019-03-01T00:31:10.992Z,42.27
2019-03-01T00:33:51.437Z,41.27
2019-03-01T00:36:26.178Z,40.50
2019-03-01T00:39:12.815Z,42.53
2019-03-01T00:42:05.467Z,44.10
2019-03-01T00:44:47.820Z,44.37
2019-03-01T00:47:17.399Z,45.53
2019-03-01T00:49:46.234Z,40.70
2019-03-01T00:52:15.139Z,45.73
2019-03-01T00:54:44.850Z,46.93
2019-03-01T00:57:13.564Z,44.17
2019-03-01T00:59:42.259Z,43.77
2019-03-01T01:02:12.127Z,47.07
2019-03-01T01:04:41.895Z,48.20
2019-03-01T01:07:47.377Z,45.37
2019-03-01T01:10:40.116Z,47.13
2019-03-01T01:13:10.785Z,46.83
2019-03-01T01:15:39.602Z,47.27
2019-03-01T01:18:08.414Z,44.50
2019-03-01T01:20:37.249Z,45.47
2019-03-01T01:23:07.002Z,46.53
2019-03-01T01:25:37.845Z,47.70
2019-03-01T01:28:06.746Z,48.47
2019-03-01T01:30:36.678Z,48.07
2019-03-01T01:33:05.294Z,46.27
2019-03-01T01:35:34.127Z,48.30
2019-03-01T01:38:03.007Z,48.93
2019-03-01T01:40:31.802Z,47.83
2019-03-01T01:43:00.485Z,45.17
2019-03-01T01:45:29.284Z,48.70
2019-03-01T01:47:58.107Z,48.27
2019-03-01T01:50:27.801Z,44.33
2019-03-01T01:52:56.492Z,48.50
2019-03-01T01:55:27.337Z,48.90
2019-03-01T01:57:56.165Z,44.83
2019-03-01T02:00:25.825Z,46.77
2019-03-01T02:02:54.502Z,44.20
2019-03-01T02:05:23.230Z,46.57
2019-03-01T02:07:51.931Z,45.07
2019-03-01T02:10:20.801Z,46.90
2019-03-01T02:12:50.475Z,43.87
2019-03-01T02:15:20.263Z,41.47
2019-03-01T02:17:48.988Z,43.50
2019-03-01T02:20:17.881Z,45.27
2019-03-01T02:22:46.738Z,46.57
2019-03-01T02:25:15.499Z,45.73
2019-03-01T02:27:44.220Z,42.30
2019-03-01T02:30:18.436Z,41.77
2019-03-01T02:32:47.302Z,44.30
2019-03-01T02:35:18.192Z,41.60
2019-03-01T02:37:49.072Z,42.87
2019-03-01T02:40:18.369Z,41.83
2019-03-01T02:42:47.221Z,42.63
2019-03-01T02:45:17.903Z,42.77
2019-03-01T02:47:46.619Z,43.63
2019-03-01T02:50:17.262Z,39.77
2019-03-01T02:52:46.212Z,45.40
2019-03-01T02:55:17.836Z,42.83
2019-03-01T02:57:46.500Z,41.20
2019-03-01T03:00:22.757Z,43.37
2019-03-01T03:02:51.620Z,39.13
2019-03-01T03:05:20.371Z,41.67
2019-03-01T03:07:53.406Z,41.97
2019-03-01T03:10:22.474Z,41.53
2019-03-01T03:12:53.791Z,39.20
2019-03-01T03:15:29.956Z,40.53
2019-03-01T03:18:01.106Z,38.97
2019-03-01T03:20:30.036Z,38.20
2019-03-01T03:22:58.853Z,40.33
2019-03-01T03:25:27.766Z,38.17
2019-03-01T03:27:56.761Z,38.10
2019-03-01T03:30:25.582Z,37.43
2019-03-01T03:32:54.461Z,39.00
2019-03-01T03:35:23.190Z,39.73
2019-03-01T03:37:51.959Z,39.30
2019-03-01T03:40:20.776Z,39.83
2019-03-01T03:42:49.522Z,39.30
2019-03-01T03:45:19.223Z,37.80
2019-03-01T03:47:47.972Z,37.67
2019-03-01T03:50:17.018Z,38.03
2019-03-01T03:52:45.873Z,36.43
2019-03-01T03:55:18.358Z,38.23
2019-03-01T03:57:48.046Z,39.07
2019-03-01T04:00:21.933Z,39.70
2019-03-01T04:02:50.727Z,39.30
2019-03-01T04:05:19.590Z,38.40
2019-03-01T04:07:48.491Z,39.57
2019-03-01T04:10:17.479Z,38.17
2019-03-01T04:12:46.412Z,37.03
2019-03-01T04:15:16.338Z,37.73
2019-03-01T04:17:45.150Z,35.50
2019-03-01T04:20:18.292Z,35.60
2019-03-01T04:22:47.272Z,38.23
2019-03-01T04:25:36.209Z,38.03
2019-03-01T04:28:23.883Z,36.53
2019-03-01T04:30:53.455Z,37.00
2019-03-01T04:33:22.335Z,38.70
2019-03-01T04:35:52.171Z,37.83
2019-03-01T04:38:22.164Z,37.33
2019-03-01T04:40:50.847Z,37.73
2019-03-01T04:43:19.762Z,38.67
2019-03-01T04:45:49.708Z,36.13
2019-03-01T04:48:19.388Z,36.40
2019-03-01T04:50:48.234Z,36.07
2019-03-01T04:53:17.102Z,36.47
2019-03-01T04:55:46.756Z,36.77
2019-03-01T04:58:16.465Z,40.27
2019-03-01T05:00:45.278Z,38.93
2019-03-01T05:03:14.074Z,40.87
2019-03-01T05:05:42.894Z,39.33
2019-03-01T05:08:11.742Z,40.30
2019-03-01T05:10:40.776Z,40.30
2019-03-01T05:13:09.620Z,40.60
2019-03-01T05:15:38.220Z,39.77
2019-03-01T05:18:07.042Z,39.97
2019-03-01T05:20:37.556Z,38.33
2019-03-01T05:23:06.286Z,40.73
2019-03-01T05:25:35.068Z,40.40
2019-03-01T05:28:03.854Z,37.07
2019-03-01T05:30:32.717Z,38.73
2019-03-01T05:33:01.412Z,41.20
2019-03-01T05:35:30.191Z,39.30
2019-03-01T05:37:58.965Z,41.43
2019-03-01T05:40:47.598Z,39.80
2019-03-01T05:43:16.332Z,40.90
2019-03-01T05:45:45.144Z,39.67
2019-03-01T05:48:14.576Z,38.97
2019-03-01T05:50:47.440Z,38.90
2019-03-01T05:53:16.189Z,40.57
2019-03-01T05:55:44.902Z,37.60
2019-03-01T05:58:31.864Z,37.50
2019-03-01T06:01:06.580Z,37.40
2019-03-01T06:03:43.820Z,38.50
2019-03-01T06:06:24.344Z,38.07
2019-03-01T06:08:57.076Z,36.63
2019-03-01T06:11:34.425Z,49.20
2019-03-01T06:14:23.072Z,39.90
2019-03-01T06:17:03.526Z,36.33
2019-03-01T06:19:38.004Z,35.33
2019-03-01T06:22:15.422Z,36.00
2019-03-01T06:24:58.816Z,32.93
2019-03-01T06:27:56.560Z,36.23
2019-03-01T06:31:09.241Z,32.07
2019-03-01T06:33:56.842Z,29.10
2019-03-01T06:36:48.166Z,33.13
2019-03-01T06:39:42.363Z,32.87
2019-03-01T06:42:14.303Z,31.53
2019-03-01T06:44:54.871Z,31.03
2019-03-01T06:47:45.556Z,32.07
2019-03-01T06:50:18.627Z,29.40
2019-03-01T06:52:47.511Z,27.40
2019-03-01T06:55:28.304Z,28.37
2019-03-01T06:57:56.907Z,27.90
2019-03-01T07:00:26.173Z,27.10
2019-03-01T07:02:59.517Z,26.80
2019-03-01T07:05:28.271Z,26.47
2019-03-01T07:07:57.100Z,26.97
2019-03-01T07:10:25.712Z,25.93
2019-03-01T07:12:54.402Z,25.37
2019-03-01T07:15:23.126Z,28.33
2019-03-01T07:17:51.921Z,26.03
2019-03-01T07:20:20.730Z,26.93
2019-03-01T07:22:49.405Z,28.80
2019-03-01T07:25:18.114Z,26.60
2019-03-01T07:27:46.867Z,24.63
2019-03-01T07:30:15.619Z,26.77
2019-03-01T07:32:44.406Z,26.57
2019-03-01T07:35:13.397Z,26.77
2019-03-01T07:37:42.269Z,26.17
2019-03-01T07:40:12.405Z,25.37
2019-03-01T07:42:41.160Z,27.00
2019-03-01T07:45:13.756Z,26.30
2019-03-01T07:47:42.530Z,26.53
2019-03-01T07:50:13.937Z,25.40
2019-03-01T07:52:42.668Z,26.17
2019-03-01T07:55:14.423Z,26.10
2019-03-01T07:57:43.189Z,26.47
2019-03-01T08:00:16.415Z,26.03
2019-03-01T08:02:46.098Z,26.63
2019-03-01T08:05:16.341Z,26.40
2019-03-01T08:07:55.450Z,26.17
2019-03-01T08:10:22.541Z,27.43
2019-03-01T08:12:48.571Z,26.37
2019-03-01T08:15:17.990Z,26.47
2019-03-01T08:21:15.887Z,26.97
2019-03-01T08:24:02.721Z,26.90
2019-03-01T08:26:34.068Z,25.93
2019-03-01T08:29:01.996Z,26.87
2019-03-01T08:31:30.797Z,27.63
2019-03-01T08:37:27.609Z,27.47
2019-03-01T08:43:00.889Z,27.33
2019-03-01T08:45:32.617Z,27.57
2019-03-01T08:48:02.214Z,27.70
2019-03-01T08:50:30.945Z,26.13
2019-03-01T08:52:59.788Z,25.70
2019-03-01T08:55:38.933Z,27.50
2019-03-01T08:58:07.199Z,26.10
2019-03-01T09:00:59.854Z,26.07
2019-03-01T09:03:46.936Z,24.63
2019-03-01T09:06:15.547Z,21.93
2019-03-01T09:08:47.504Z,23.43
2019-03-01T09:11:19.823Z,21.80
2019-03-01T09:13:51.885Z,22.37
2019-03-01T09:16:22.157Z,20.30
2019-03-01T09:18:51.146Z,21.73
2019-03-01T09:21:23.412Z,22.67
2019-03-01T09:23:54.781Z,22.30
2019-03-01T09:26:25.563Z,22.87
2019-03-01T09:28:54.395Z,24.43
2019-03-01T09:31:23.285Z,24.20
2019-03-01T09:33:56.518Z,22.27
2019-03-01T09:36:26.800Z,19.33
2019-03-01T09:38:55.754Z,19.10
2019-03-01T09:41:24.604Z,18.60
2019-03-01T09:43:53.564Z,18.63
2019-03-01T09:46:28.335Z,18.13
2019-03-01T09:48:57.321Z,18.93
2019-03-01T09:51:26.121Z,19.47
2019-03-01T09:53:54.885Z,19.40
2019-03-01T09:56:24.358Z,19.20
2019-03-01T09:58:53.396Z,18.80
2019-03-01T10:01:23.019Z,19.93
2019-03-01T10:03:52.306Z,19.77
2019-03-01T10:06:21.095Z,17.17
2019-03-01T10:08:49.721Z,17.73
2019-03-01T10:11:18.609Z,18.70
2019-03-01T10:13:47.532Z,18.03
2019-03-01T10:16:16.540Z,16.30
2019-03-01T10:18:45.263Z,16.90
2019-03-01T10:21:15.148Z,16.80
2019-03-01T10:23:44.020Z,17.37
2019-03-01T10:26:13.772Z,16.00
2019-03-01T10:28:44.693Z,16.17
2019-03-01T10:31:13.444Z,15.57
2019-03-01T10:33:43.915Z,16.97
2019-03-01T10:36:12.819Z,16.23
2019-03-01T10:38:41.661Z,16.27
2019-03-01T10:41:10.546Z,15.73
2019-03-01T10:43:39.245Z,12.77
2019-03-01T10:46:15.287Z,15.27
2019-03-01T10:48:46.959Z,12.33
2019-03-01T10:51:15.772Z,14.43
2019-03-01T10:53:44.503Z,13.13
2019-03-01T10:56:14.985Z,12.37
2019-03-01T10:58:43.922Z,13.37
2019-03-01T11:01:12.793Z,13.57
2019-03-01T11:03:43.351Z,13.50
2019-03-01T11:06:16.111Z,13.60
2019-03-01T11:08:45.047Z,12.80
2019-03-01T11:11:16.020Z,14.80
2019-03-01T11:13:46.126Z,13.57
2019-03-01T11:16:17.090Z,13.93
2019-03-01T11:18:45.909Z,13.67
2019-03-01T11:21:15.023Z,13.47
2019-03-01T11:23:49.792Z,14.03
2019-03-01T11:26:21.550Z,14.33
2019-03-01T11:28:50.654Z,14.27
2019-03-01T11:31:19.574Z,13.23
2019-03-01T11:34:11.395Z,13.90
2019-03-01T11:37:05.271Z,11.07
2019-03-01T11:39:58.276Z,10.77
2019-03-01T11:42:28.720Z,12.80
2019-03-01T11:45:00.688Z,13.80
2019-03-01T11:47:51.833Z,12.50
2019-03-01T11:50:47.366Z,12.43
2019-03-01T11:53:29.083Z,10.27
2019-03-01T11:56:04.017Z,11.03
2019-03-01T11:58:56.351Z,11.50
2019-03-01T12:01:25.197Z,10.50
2019-03-01T12:03:55.145Z,11.10
2019-03-01T12:06:29.203Z,10.07
2019-03-01T12:08:57.851Z,10.67
2019-03-01T12:11:26.770Z,10.70
2019-03-01T12:13:55.588Z,10.93
2019-03-01T12:16:24.460Z,9.73
2019-03-01T12:18:53.102Z,10.30
2019-03-01T12:21:21.938Z,9.27
2019-03-01T12:23:50.642Z,10.23
2019-03-01T12:26:19.472Z,9.90
2019-03-01T12:28:48.403Z,10.43
2019-03-01T12:31:17.134Z,10.27
2019-03-01T12:33:45.875Z,9.67
2019-03-01T12:36:14.794Z,8.77
2019-03-01T12:38:43.671Z,9.83
2019-03-01T12:41:12.617Z,9.57
2019-03-01T12:43:41.530Z,8.70
2019-03-01T12:46:10.390Z,8.70
2019-03-01T12:48:39.137Z,8.70
2019-03-01T12:51:08.982Z,9.27
2019-03-01T12:53:37.866Z,9.40
2019-03-01T12:56:06.761Z,10.00
2019-03-01T12:58:38.613Z,7.70
2019-03-01T13:01:07.385Z,8.30
2019-03-01T13:03:36.552Z,9.33
2019-03-01T13:06:08.610Z,7.87
2019-03-01T13:08:37.614Z,8.27
2019-03-01T13:11:07.985Z,8.90
2019-03-01T13:13:39.358Z,8.33
2019-03-01T13:16:08.627Z,8.60
2019-03-01T13:18:40.436Z,8.40
2019-03-01T13:21:12.945Z,9.03
2019-03-01T13:23:45.412Z,8.23
2019-03-01T13:26:15.534Z,8.13
2019-03-01T13:28:49.136Z,8.37
2019-03-01T13:31:21.149Z,7.70
2019-03-01T13:34:45.863Z,9.17
2019-03-01T13:40:43.893Z,8.93
2019-03-01T13:43:50.399Z,8.57
2019-03-01T13:46:21.200Z,9.23
2019-03-01T13:48:54.100Z,10.10
2019-03-01T13:51:25.129Z,9.00
2019-03-01T13:54:12.886Z,8.23
2019-03-01T14:00:15.451Z,10.13
2019-03-01T14:06:19.547Z,9.33
2019-03-01T14:09:29.529Z,8.93
2019-03-01T14:11:59.363Z,9.10
2019-03-01T14:14:28.957Z,9.17
2019-03-01T14:17:01.372Z,10.03
2019-03-01T14:19:33.398Z,9.20
2019-03-01T14:22:10.752Z,10.10
2019-03-01T14:24:56.075Z,9.47
2019-03-01T14:27:29.582Z,10.60
2019-03-01T14:29:57.742Z,10.57
2019-03-01T14:32:27.442Z,10.37
2019-03-01T14:34:56.430Z,10.13
2019-03-01T14:37:25.315Z,10.20
2019-03-01T14:39:55.286Z,9.50
2019-03-01T14:42:24.026Z,10.50
2019-03-01T14:45:12.435Z,11.30
2019-03-01T14:47:41.351Z,10.10
2019-03-01T14:50:13.131Z,10.97
2019-03-01T14:52:41.922Z,9.67
2019-03-01T14:55:19.804Z,9.37
2019-03-01T14:57:50.552Z,8.60
2019-03-01T15:00:34.131Z,8.50
2019-03-01T15:03:20.685Z,7.73
2019-03-01T15:05:49.500Z,6.70
2019-03-01T15:08:18.363Z,4.50
2019-03-01T15:10:49.331Z,4.23
2019-03-01T15:13:18.405Z,2.87
2019-03-01T15:15:54.132Z,4.20
2019-03-01T15:18:24.968Z,2.67
2019-03-01T15:20:56.229Z,2.00
2019-03-01T15:23:25.283Z,1.80
2019-03-01T15:25:54.341Z,1.83
2019-03-01T15:28:23.268Z,1.67
2019-03-01T15:30:52.078Z,1.60
2019-03-01T15:33:22.757Z,1.83
2019-03-01T15:35:51.904Z,1.63
2019-03-01T15:38:23.775Z,1.53
2019-03-01T15:40:51.343Z,1.70
2019-03-01T15:43:21.217Z,1.60
2019-03-01T15:45:51.523Z,1.40
2019-03-01T15:48:20.481Z,2.03
2019-03-01T15:51:25.436Z,1.97
2019-03-01T15:53:57.555Z,2.10
2019-03-01T15:56:28.131Z,2.13
2019-03-01T15:58:56.747Z,2.00
2019-03-01T16:01:25.678Z,2.00
2019-03-01T16:03:57.188Z,1.40
2019-03-01T16:06:25.092Z,2.00
2019-03-01T16:08:55.862Z,1.40
2019-03-01T16:11:24.514Z,1.27
2019-03-01T16:14:11.416Z,1.40
2019-03-01T16:16:40.210Z,1.20
2019-03-01T16:19:11.092Z,1.20
2019-03-01T16:22:18.725Z,1.13
2019-03-01T16:29:08.260Z,1.10
2019-03-01T16:35:18.193Z,1.10
2019-03-01T16:37:54.076Z,1.30
2019-03-01T16:40:45.612Z,1.87
2019-03-01T16:46:28.472Z,1.20
2019-03-01T16:52:42.617Z,1.33
2019-03-01T16:55:50.590Z,1.27
2019-03-01T17:01:46.963Z,1.57
2019-03-01T17:04:18.739Z,1.70
2019-03-01T17:06:55.177Z,1.80
2019-03-01T17:09:24.203Z,1.80
2019-03-01T17:11:56.161Z,1.90
2019-03-01T17:14:30.235Z,1.70
2019-03-01T17:16:59.657Z,2.10
2019-03-01T17:19:31.374Z,1.60
2019-03-01T17:22:00.376Z,2.00
2019-03-01T17:24:30.203Z,2.17
2019-03-01T17:27:02.090Z,2.23
2019-03-01T17:29:31.602Z,2.50
2019-03-01T17:32:02.036Z,2.07
2019-03-01T17:34:49.784Z,2.33
2019-03-01T17:37:18.529Z,2.27
2019-03-01T17:40:09.922Z,1.77
2019-03-01T17:42:38.700Z,2.17
2019-03-01T17:45:11.481Z,2.43
2019-03-01T17:47:42.203Z,2.30
2019-03-01T17:50:28.800Z,2.13
2019-03-01T17:52:57.583Z,1.93
2019-03-01T17:55:27.831Z,2.33
2019-03-01T17:58:15.378Z,2.23
2019-03-01T18:00:47.753Z,2.07
2019-03-01T18:03:16.693Z,1.93
2019-03-01T18:05:45.390Z,1.57
2019-03-01T18:08:14.251Z,1.43
2019-03-01T18:10:44.165Z,1.47
2019-03-01T18:13:14.944Z,1.67
2019-03-01T18:15:48.660Z,1.37
2019-03-01T18:18:16.854Z,1.63
2019-03-01T18:20:45.714Z,1.30
2019-03-01T18:23:14.440Z,1.97
2019-03-01T18:25:43.151Z,1.40
2019-03-01T18:28:12.095Z,1.53
2019-03-01T18:30:43.984Z,1.50
2019-03-01T18:33:31.783Z,1.50
2019-03-01T18:36:03.634Z,1.60
2019-03-01T18:38:35.381Z,1.60
2019-03-01T18:41:05.200Z,2.60
2019-03-01T18:43:33.952Z,2.60
2019-03-01T18:46:02.723Z,2.77
2019-03-01T18:48:33.620Z,2.47
2019-03-01T18:51:03.486Z,2.20
2019-03-01T18:53:40.077Z,2.20
2019-03-01T18:56:15.865Z,2.50
2019-03-01T18:58:45.654Z,2.17
2019-03-01T19:01:19.728Z,1.97
2019-03-01T19:03:48.693Z,1.67
2019-03-01T19:06:17.411Z,1.97
2019-03-01T19:08:48.086Z,1.97
2019-03-01T19:11:18.287Z,1.90
2019-03-01T19:13:47.049Z,2.00
2019-03-01T19:16:17.992Z,2.60
2019-03-01T19:18:48.198Z,2.17
2019-03-01T19:21:18.138Z,2.07
2019-03-01T19:23:47.049Z,2.00
2019-03-01T19:26:16.930Z,1.87
2019-03-01T19:28:45.870Z,1.70
2019-03-01T19:31:14.688Z,1.97
2019-03-01T19:33:43.594Z,2.10
2019-03-01T19:36:12.654Z,2.03
2019-03-01T19:38:41.451Z,2.13
2019-03-01T19:41:10.780Z,2.00
2019-03-01T19:43:45.071Z,1.70
2019-03-01T19:46:15.374Z,1.13
2019-03-01T19:48:42.956Z,1.03
2019-03-01T19:51:11.833Z,1.10
2019-03-01T19:53:40.623Z,1.20
2019-03-01T19:56:09.331Z,1.40
2019-03-01T19:58:37.993Z,1.00
2019-03-01T20:01:07.831Z,1.00
2019-03-01T20:03:37.546Z,0.80
2019-03-01T20:06:08.045Z,0.93
2019-03-01T20:08:37.256Z,1.17
2019-03-01T20:11:06.008Z,1.50
2019-03-01T20:13:34.879Z,0.97
2019-03-01T20:16:03.781Z,1.27
2019-03-01T20:18:33.872Z,1.20
2019-03-01T20:21:23.574Z,1.40
2019-03-01T20:24:11.926Z,1.33
2019-03-01T20:26:41.174Z,1.37
2019-03-01T20:29:19.176Z,1.53
2019-03-01T20:31:48.000Z,1.23
2019-03-01T20:34:16.695Z,1.10
2019-03-01T20:36:45.707Z,1.47
2019-03-01T20:39:33.303Z,2.03
2019-03-01T20:43:00.455Z,1.60
2019-03-01T20:45:30.024Z,1.37
2019-03-01T20:47:59.482Z,1.43
2019-03-01T20:50:28.253Z,1.60
2019-03-01T20:52:57.176Z,1.40
2019-03-01T20:55:26.229Z,1.97
2019-03-01T20:57:59.764Z,1.67
2019-03-01T21:00:48.021Z,1.33
2019-03-01T21:03:17.066Z,1.87
2019-03-01T21:05:50.238Z,1.40
2019-03-01T21:08:20.455Z,1.77
2019-03-01T21:11:26.350Z,1.60
2019-03-01T21:13:56.340Z,1.60
2019-03-01T21:16:25.399Z,1.77
2019-03-01T21:19:13.501Z,1.73
2019-03-01T21:22:01.545Z,1.60
2019-03-01T21:25:10.128Z,1.47
2019-03-01T21:28:15.428Z,1.43
2019-03-01T21:30:45.628Z,1.80
2019-03-01T21:33:14.639Z,2.10
2019-03-01T21:35:47.790Z,1.80
2019-03-01T21:38:36.464Z,1.40
2019-03-01T21:41:06.407Z,1.33
2019-03-01T21:43:36.821Z,1.37
2019-03-01T21:46:10.269Z,1.27
2019-03-01T21:48:42.638Z,1.50
2019-03-01T21:52:06.708Z,1.00
2019-03-01T21:54:40.025Z,1.37
2019-03-01T21:57:32.663Z,1.10
2019-03-01T22:00:03.448Z,1.53
2019-03-01T22:02:34.671Z,0.87
2019-03-01T22:05:04.320Z,1.50
2019-03-01T22:07:51.971Z,0.93
2019-03-01T22:10:21.031Z,1.40
2019-03-01T22:16:36.624Z,1.77
2019-03-01T22:19:22.218Z,1.90
2019-03-01T22:21:58.183Z,1.00
2019-03-01T22:24:26.568Z,1.27
2019-03-01T22:26:55.600Z,1.80
2019-03-01T22:29:43.617Z,1.53
2019-03-01T22:32:16.643Z,2.00
2019-03-01T22:35:22.636Z,1.27
2019-03-01T22:37:53.235Z,2.00
2019-03-01T22:40:24.144Z,1.70
2019-03-01T22:42:53.895Z,2.23
2019-03-01T22:45:42.168Z,1.93
2019-03-01T22:48:11.778Z,1.77
2019-03-01T22:50:42.792Z,2.03
2019-03-01T22:53:12.538Z,1.93
2019-03-01T22:56:01.887Z,2.20
2019-03-01T22:58:32.711Z,2.43
2019-03-01T23:01:07.551Z,3.00
2019-03-01T23:03:55.919Z,3.17
2019-03-01T23:06:25.838Z,3.40
2019-03-01T23:08:54.713Z,2.87
2019-03-01T23:11:24.572Z,2.93
2019-03-01T23:13:55.710Z,2.30
2019-03-01T23:16:28.690Z,2.77
2019-03-01T23:18:57.948Z,2.50
2019-03-01T23:21:26.795Z,2.53
2019-03-01T23:23:55.920Z,2.77
2019-03-01T23:26:27.895Z,1.80
2019-03-01T23:29:10.828Z,2.47
2019-03-01T23:31:40.874Z,1.97
2019-03-01T23:34:13.353Z,2.50
2019-03-01T23:36:42.247Z,1.93
2019-03-01T23:39:13.182Z,2.03
2019-03-01T23:42:00.442Z,2.50
2019-03-01T23:44:50.560Z,2.00
2019-03-01T23:47:19.588Z,2.27
2019-03-01T23:53:34.111Z,2.23
2019-03-01T23:56:04.656Z,2.27
2019-03-01T23:58:33.491Z,2.63
